Time;durP1;ratioP1;P1;durP2;ratioP2;P2;SDS_P1;SDS_P2;PMS_P1;PMS_P2;Temp;Humidity;BMP_temperature;BMP_pressure;BME280_temperature;BME280_humidity;BME280_pressure;Samples;Min_cycle;Max_cycle;Signal;HPM_P1;HPM_P2
2021/08/09 00:01:54;;;;;;;2.60;1.42;;;;;;;28.19;46.30;99651.53;4483477;32;32584;-63
2021/08/09 00:04:21;;;;;;;3.15;1.50;;;;;;;28.18;46.34;99668.28;4484614;32;35206;-63
2021/08/09 00:06:49;;;;;;;3.60;1.83;;;;;;;28.17;46.40;99663.88;4484834;32;34602;-63
2021/08/09 00:09:16;;;;;;;5.95;1.70;;;;;;;28.14;46.40;99673.44;4484304;32;34004;-64
2021/08/09 00:11:44;;;;;;;3.05;1.50;;;;;;;28.13;46.41;99674.53;4482592;32;35059;-63
2021/08/09 00:14:11;;;;;;;6.65;1.50;;;;;;;28.11;46.37;99693.16;4484076;32;34993;-63
2021/08/09 00:16:40;;;;;;;3.95;1.60;;;;;;;28.09;46.40;99702.75;4484340;32;34854;-63
2021/08/09 00:19:07;;;;;;;5.78;1.73;;;;;;;28.08;46.11;99701.09;4484433;32;33366;-63
2021/08/09 00:21:35;;;;;;;3.75;1.42;;;;;;;28.06;46.23;99708.75;4484582;32;34384;-63
2021/08/09 00:24:03;;;;;;;6.68;1.70;;;;;;;28.05;46.05;99718.91;4484583;32;34436;-64
2021/08/09 00:26:32;;;;;;;2.53;1.50;;;;;;;28.05;45.92;99716.16;4484527;32;33879;-63
2021/08/09 00:29:05;;;;;;;5.12;1.52;;;;;;;28.02;45.82;99702.94;4474568;32;33697;-63
2021/08/09 00:31:34;;;;;;;3.47;1.30;;;;;;;28.03;45.78;99710.09;4484588;32;33584;-63
2021/08/09 00:34:02;;;;;;;2.10;1.20;;;;;;;28.03;45.76;99718.34;4484604;32;34507;-63
2021/08/09 00:36:29;;;;;;;2.15;1.05;;;;;;;28.02;45.88;99713.09;4484408;32;33134;-63
2021/08/09 00:39:02;;;;;;;2.03;1.20;;;;;;;28.01;45.61;99706.78;4484611;32;33494;-63
2021/08/09 00:41:30;;;;;;;2.60;1.40;;;;;;;27.97;45.67;99720.19;4484321;32;34658;-62
2021/08/09 00:43:59;;;;;;;3.53;1.08;;;;;;;27.96;45.73;99712.22;4484505;32;33843;-63
2021/08/09 00:46:29;;;;;;;3.25;1.55;;;;;;;27.94;45.98;99711.66;4472356;32;34634;-63
2021/08/09 00:48:57;;;;;;;;;;;;;;;27.93;45.91;99715.47;4484666;32;33403;-62
2021/08/09 00:51:25;;;;;;;3.33;1.17;;;;;;;28.03;45.64;99718.34;4483289;32;34255;-63
2021/08/09 00:53:53;;;;;;;2.80;1.30;;;;;;;27.95;45.87;99724.28;4484783;32;34930;-63
2021/08/09 00:56:20;;;;;;;3.08;1.10;;;;;;;27.92;45.97;99724.78;4483033;32;33844;-63
2021/08/09 00:58:48;;;;;;;2.40;1.23;;;;;;;27.90;45.69;99722.31;4482733;32;33553;-63
2021/08/09 01:01:16;;;;;;;4.28;1.42;;;;;;;27.90;45.79;99721.50;4484119;32;34006;-62
2021/08/09 01:03:47;;;;;;;3.75;1.42;;;;;;;27.88;45.80;99724.47;4483703;32;34057;-62
2021/08/09 01:06:15;;;;;;;1.73;1.10;;;;;;;27.88;45.82;99729.13;4484328;32;34955;-62
2021/08/09 01:09:07;;;;;;;4.80;1.20;;;;;;;27.87;45.53;99735.72;4484415;32;33701;-62
2021/08/09 01:12:04;;;;;;;1.62;0.98;;;;;;;27.89;45.60;99739.84;4467491;32;34079;-62
2021/08/09 01:14:56;;;;;;;2.03;1.25;;;;;;;27.90;45.36;99737.94;4468888;32;34065;-62
2021/08/09 01:17:28;;;;;;;2.08;1.10;;;;;;;27.90;45.35;99738.75;4475304;32;34591;-62
2021/08/09 01:20:16;;;;;;;4.82;1.30;;;;;;;27.86;45.55;99736.81;4480137;32;33448;-62
2021/08/09 01:22:53;;;;;;;4.20;1.23;;;;;;;27.85;45.36;99748.84;4482917;32;33899;-62
2021/08/09 01:25:30;;;;;;;3.15;1.10;;;;;;;27.88;45.14;99745.59;4483737;32;34141;-63
2021/08/09 01:27:58;;;;;;;1.48;0.98;;;;;;;27.87;44.99;99743.94;4483800;32;33741;-63
2021/08/09 01:30:26;;;;;;;2.55;1.00;;;;;;;27.84;45.08;99745.28;4469267;32;33119;-63
2021/08/09 01:32:54;;;;;;;2.62;1.30;;;;;;;27.83;45.02;99749.09;4482781;32;34150;-63
2021/08/09 01:35:24;;;;;;;2.25;1.10;;;;;;;27.83;45.01;99753.75;4483359;32;34119;-63
2021/08/09 01:37:54;;;;;;;2.47;1.20;;;;;;;27.80;45.09;99746.06;4471959;32;34659;-63
2021/08/09 01:40:22;;;;;;;2.65;1.10;;;;;;;27.80;45.23;99760.59;4482967;32;33353;-63
2021/08/09 01:42:51;;;;;;;3.78;1.23;;;;;;;27.80;44.93;99762.50;4466587;32;34009;-63
2021/08/09 01:45:20;;;;;;;3.35;1.20;;;;;;;27.80;44.76;99754.28;4468468;32;34952;-63
2021/08/09 01:47:48;;;;;;;2.15;1.00;;;;;;;27.77;44.66;99747.38;4469961;32;33865;-63
2021/08/09 01:50:16;;;;;;;3.20;1.30;;;;;;;27.78;44.54;99735.34;4469644;32;33736;-63
2021/08/09 01:52:44;;;;;;;4.82;1.00;;;;;;;27.78;44.43;99740.81;4482149;32;33948;-63
2021/08/09 01:55:13;;;;;;;6.10;1.23;;;;;;;27.79;44.37;99747.94;4484138;32;34117;-63
2021/08/09 01:57:41;;;;;;;3.62;1.20;;;;;;;27.79;44.25;99747.13;4483579;32;35496;-64
2021/08/09 02:00:11;;;;;;;2.65;1.25;;;;;;;27.78;44.19;99740.81;4483766;32;33185;-64
2021/08/09 02:02:42;;;;;;;2.72;0.98;;;;;;;27.78;44.22;99750.97;4483196;32;33602;-63
2021/08/09 02:05:12;;;;;;;3.37;0.98;;;;;;;27.79;44.14;99752.59;4483789;32;34369;-63
2021/08/09 02:07:41;;;;;;;;;;;;;;;27.77;44.24;99760.28;4484187;32;34679;-63
2021/08/09 02:10:10;;;;;;;3.17;1.17;;;;;;;27.88;43.78;99764.78;4480200;32;36478;-63
2021/08/09 02:13:05;;;;;;;1.92;1.15;;;;;;;27.78;43.86;99762.75;4483552;32;33978;-63
2021/08/09 02:16:08;;;;;;;2.83;1.27;;;;;;;27.79;43.78;99769.06;4468040;32;34724;-63
2021/08/09 02:18:40;;;;;;;1.90;1.10;;;;;;;27.78;43.83;99778.38;4471765;32;33868;-63
2021/08/09 02:21:10;;;;;;;4.50;1.37;;;;;;;27.73;43.79;99783.81;4482387;32;33397;-63
2021/08/09 02:23:46;;;;;;;3.00;1.20;;;;;;;27.73;43.71;99781.06;4481688;32;33814;-63
2021/08/09 02:26:16;;;;;;;2.42;1.40;;;;;;;27.74;43.76;99793.66;4483719;32;34567;-63
2021/08/09 02:28:44;;;;;;;3.72;1.25;;;;;;;27.70;43.69;99796.91;4468974;32;33959;-63
2021/08/09 02:31:12;;;;;;;6.00;1.20;;;;;;;27.70;43.62;99807.06;4481606;32;33612;-63
2021/08/09 02:33:40;;;;;;;4.93;1.20;;;;;;;27.70;43.68;99805.13;4469002;32;33888;-63
2021/08/09 02:36:07;;;;;;;3.72;1.20;;;;;;;27.70;43.67;99802.41;4470132;32;33992;-63
2021/08/09 02:38:35;;;;;;;2.53;1.20;;;;;;;27.69;43.52;99797.97;4471092;32;34692;-63
2021/08/09 02:41:03;;;;;;;2.58;1.10;;;;;;;27.68;43.43;99807.28;4485452;32;33384;-63
2021/08/09 02:43:32;;;;;;;3.58;1.20;;;;;;;27.68;43.29;99809.22;4482154;32;33794;-63
2021/08/09 02:46:01;;;;;;;2.28;1.27;;;;;;;27.68;43.31;99821.00;4469367;32;33784;-63
2021/08/09 02:48:31;;;;;;;3.28;1.55;;;;;;;27.66;43.28;99819.59;4484020;32;34080;-63
2021/08/09 02:50:58;;;;;;;6.28;1.27;;;;;;;27.68;43.15;99829.22;4471199;32;33607;-63
2021/08/09 02:53:26;;;;;;;2.95;1.30;;;;;;;27.68;43.12;99825.66;4484636;32;34341;-63
2021/08/09 02:55:55;;;;;;;3.47;1.65;;;;;;;27.65;43.04;99829.75;4471093;32;34840;-63
2021/08/09 02:58:23;;;;;;;4.07;1.27;;;;;;;27.64;42.98;99827.25;4484157;32;34681;-63
2021/08/09 03:00:54;;;;;;;2.85;1.17;;;;;;;27.66;42.91;99830.56;4480412;32;34333;-63
2021/08/09 03:03:22;;;;;;;3.65;1.27;;;;;;;27.63;42.78;99823.66;4475829;32;33620;-63
2021/08/09 03:05:51;;;;;;;7.32;1.40;;;;;;;27.62;42.88;99832.97;4485043;32;34930;-63
2021/08/09 03:08:20;;;;;;;3.53;1.23;;;;;;;27.60;42.83;99813.22;4471249;32;33912;-63
2021/08/09 03:10:48;;;;;;;2.00;1.10;;;;;;;27.60;42.71;99815.94;4484926;32;33617;-63
2021/08/09 03:13:22;;;;;;;2.85;1.33;;;;;;;27.59;42.76;99817.03;4483420;32;33883;-63
2021/08/09 03:15:51;;;;;;;1.92;1.00;;;;;;;27.55;42.59;99828.75;4484921;32;34068;-63
2021/08/09 03:18:18;;;;;;;2.35;1.20;;;;;;;27.56;42.59;99835.91;4478646;32;34702;-63
2021/08/09 03:20:46;;;;;;;2.72;1.10;;;;;;;27.53;42.83;99828.19;4482318;32;33888;-63
2021/08/09 03:23:13;;;;;;;4.70;1.17;;;;;;;27.54;42.76;99830.69;4485050;32;34008;-63
2021/08/09 03:25:41;;;;;;;2.62;1.20;;;;;;;27.53;42.79;99842.72;4485099;32;34054;-63
2021/08/09 03:28:09;;;;;;;2.90;1.58;;;;;;;27.51;42.68;99839.38;4484797;32;34058;-63
2021/08/09 03:30:37;;;;;;;2.80;1.23;;;;;;;27.51;42.60;99844.88;4485020;32;33506;-64
2021/08/09 03:33:05;;;;;;;2.00;1.20;;;;;;;27.50;42.56;99840.47;4484761;32;34198;-63
2021/08/09 03:35:32;;;;;;;2.72;1.10;;;;;;;27.50;42.68;99837.75;4483481;32;33996;-63
2021/08/09 03:38:00;;;;;;;5.40;1.42;;;;;;;27.50;42.64;99840.47;4484825;32;33768;-64
2021/08/09 03:40:27;;;;;;;2.28;1.20;;;;;;;27.49;42.59;99835.25;4484576;32;33431;-63
2021/08/09 03:42:55;;;;;;;3.83;1.23;;;;;;;27.48;42.64;99845.41;4484219;32;33745;-63
2021/08/09 03:45:23;;;;;;;5.82;1.52;;;;;;;27.46;42.46;99844.81;4484586;32;34831;-63
2021/08/09 03:47:51;;;;;;;2.08;1.02;;;;;;;27.47;42.41;99843.75;4484952;32;34740;-63
2021/08/09 03:50:19;;;;;;;3.55;1.40;;;;;;;27.46;42.51;99844.81;4484308;32;33135;-63
2021/08/09 03:52:54;;;;;;;3.45;1.48;;;;;;;27.46;42.51;99842.06;4476730;32;34376;-63
2021/08/09 03:55:21;;;;;;;1.92;1.20;;;;;;;27.46;42.42;99844.81;4484313;32;34213;-63
2021/08/09 03:57:49;;;;;;;3.60;1.20;;;;;;;27.42;42.36;99847.25;4483797;32;35299;-63
2021/08/09 04:00:17;;;;;;;3.50;1.40;;;;;;;27.43;42.39;99832.47;4484796;32;34152;-63
2021/08/09 04:02:45;;;;;;;2.33;1.35;;;;;;;27.43;42.52;99834.37;4484510;32;34136;-63
2021/08/09 04:05:13;;;;;;;2.87;1.40;;;;;;;27.43;42.41;99843.41;4484626;32;34735;-63
2021/08/09 04:07:40;;;;;;;3.28;1.27;;;;;;;27.42;42.39;99839.03;4485029;32;33957;-63
2021/08/09 04:10:09;;;;;;;3.03;1.33;;;;;;;27.41;42.30;99842.00;4475273;32;34232;-63
2021/08/09 04:12:36;;;;;;;2.25;1.02;;;;;;;27.40;42.25;99851.31;4484925;32;33896;-63
2021/08/09 04:15:06;;;;;;;2.05;1.08;;;;;;;27.40;42.32;99860.34;4484157;32;32891;-63
2021/08/09 04:17:34;;;;;;;1.75;1.08;;;;;;;27.38;42.25;99857.03;4484696;32;33940;-63
2021/08/09 04:20:02;;;;;;;3.70;1.30;;;;;;;27.38;42.20;99868.00;4484431;32;33738;-63
2021/08/09 04:22:29;;;;;;;3.87;1.50;;;;;;;27.39;42.30;99883.34;4484894;32;33923;-63
2021/08/09 04:24:57;;;;;;;3.78;1.30;;;;;;;27.38;42.23;99884.44;4484097;32;34168;-63
2021/08/09 04:27:25;;;;;;;2.40;1.20;;;;;;;27.38;42.12;99884.44;4468798;32;34112;-63
2021/08/09 04:29:53;;;;;;;2.37;1.25;;;;;;;27.39;42.25;99882.53;4469125;32;33844;-63
2021/08/09 04:32:21;;;;;;;2.95;1.40;;;;;;;27.39;42.25;99880.63;4482732;32;33471;-63
2021/08/09 04:34:49;;;;;;;4.32;1.37;;;;;;;27.40;42.17;99882.28;4484899;32;34704;-63
2021/08/09 04:37:17;;;;;;;2.15;1.08;;;;;;;27.39;42.17;99877.06;4484322;32;34610;-63
2021/08/09 04:39:45;;;;;;;2.20;1.00;;;;;;;27.39;42.11;99888.00;4484676;32;33301;-63
2021/08/09 04:42:17;;;;;;;4.65;1.40;;;;;;;27.37;42.03;99893.75;4483887;32;34456;-63
2021/08/09 04:44:45;;;;;;;2.40;1.27;;;;;;;27.40;42.19;99897.88;4483915;32;33946;-63
2021/08/09 04:47:13;;;;;;;2.58;1.35;;;;;;;27.39;42.12;99893.50;4483900;32;34193;-62
2021/08/09 04:49:42;;;;;;;2.58;1.20;;;;;;;27.37;42.21;99885.53;4484276;32;33592;-62
2021/08/09 04:52:10;;;;;;;3.20;1.60;;;;;;;27.39;42.19;99883.34;4483982;32;34042;-63
2021/08/09 04:54:38;;;;;;;2.05;1.00;;;;;;;27.38;41.95;99878.13;4484399;32;34037;-62
2021/08/09 04:57:05;;;;;;;3.62;1.25;;;;;;;27.37;42.35;99880.06;4484063;32;33900;-62
2021/08/09 04:59:33;;;;;;;2.03;1.30;;;;;;;27.38;42.28;99872.66;4482053;32;33874;-62
2021/08/09 05:02:01;;;;;;;2.58;1.17;;;;;;;27.38;42.22;99883.62;4477909;32;34080;-62
2021/08/09 05:04:29;;;;;;;3.00;1.37;;;;;;;27.38;42.21;99891.84;4484543;32;34951;-62
2021/08/09 05:06:56;;;;;;;6.78;1.62;;;;;;;27.34;42.04;99883.28;4483640;32;33925;-62
2021/08/09 05:09:24;;;;;;;2.45;1.20;;;;;;;27.33;42.09;99869.84;4484568;32;33327;-63
2021/08/09 05:11:52;;;;;;;3.45;1.42;;;;;;;27.33;42.15;99875.31;4483908;32;33860;-62
2021/08/09 05:14:20;;;;;;;1.95;1.20;;;;;;;27.33;42.22;99867.09;4484180;32;34855;-63
2021/08/09 05:16:49;;;;;;;2.90;1.23;;;;;;;27.34;42.20;99871.50;4480278;32;33860;-62
2021/08/09 05:19:16;;;;;;;5.78;1.20;;;;;;;27.33;42.20;99872.59;4468597;32;34285;-62
2021/08/09 05:21:44;;;;;;;2.65;1.25;;;;;;;27.34;42.20;99880.53;4474094;32;34472;-62
2021/08/09 05:24:11;;;;;;;2.92;1.40;;;;;;;27.35;42.29;99881.38;4484033;32;34029;-62
2021/08/09 05:26:39;;;;;;;4.90;1.50;;;;;;;27.34;42.26;99879.72;4483680;32;33954;-62
2021/08/09 05:29:06;;;;;;;1.30;1.00;;;;;;;27.33;42.27;99887.13;4484042;32;34104;-62
2021/08/09 05:31:34;;;;;;;4.25;1.48;;;;;;;27.35;42.36;99879.47;4483840;32;34098;-62
2021/08/09 05:34:02;;;;;;;2.70;1.23;;;;;;;27.34;42.38;99880.53;4478273;32;34081;-62
2021/08/09 05:36:30;;;;;;;1.90;1.10;;;;;;;27.36;42.45;99875.62;4476479;32;33901;-62
2021/08/09 05:39:00;;;;;;;3.03;1.40;;;;;;;27.36;42.40;99881.09;4483823;32;33613;-62
2021/08/09 05:41:28;;;;;;;5.10;1.48;;;;;;;27.36;42.45;99892.06;4483501;32;33695;-62
2021/08/09 05:43:56;;;;;;;2.47;1.20;;;;;;;27.35;42.30;99892.31;4483942;32;34779;-62
2021/08/09 05:46:24;;;;;;;2.28;1.25;;;;;;;27.34;42.41;99894.25;4483838;32;34008;-62
2021/08/09 05:48:51;;;;;;;2.80;1.30;;;;;;;27.34;42.42;99898.91;4484132;32;33385;-62
2021/08/09 05:51:19;;;;;;;3.15;1.20;;;;;;;27.33;42.41;99903.53;4477041;32;34244;-62
2021/08/09 05:53:47;;;;;;;7.32;1.60;;;;;;;27.32;42.40;99901.03;4483023;32;33967;-62
2021/08/09 05:56:15;;;;;;;2.75;1.27;;;;;;;27.32;42.41;99903.78;4483495;32;34934;-62
2021/08/09 05:58:43;;;;;;;5.50;1.20;;;;;;;27.33;42.51;99905.47;4483302;32;33087;-63
2021/08/09 06:01:12;;;;;;;2.70;1.30;;;;;;;27.32;42.46;99912.81;4483926;32;33965;-63
2021/08/09 06:03:41;;;;;;;3.22;1.33;;;;;;;27.33;42.46;99908.19;4482978;32;34731;-63
2021/08/09 06:06:18;;;;;;;6.00;1.35;;;;;;;27.33;42.50;99898.06;4483761;32;34765;-63
2021/08/09 06:08:47;;;;;;;3.80;1.40;;;;;;;27.33;42.41;99909.03;4483519;32;34458;-63
2021/08/09 06:11:15;;;;;;;2.08;1.10;;;;;;;27.32;42.44;99904.59;4484138;32;33913;-63
2021/08/09 06:13:43;;;;;;;2.65;1.30;;;;;;;27.34;42.59;99913.41;4485184;32;34063;-63
2021/08/09 06:16:12;;;;;;;3.85;1.67;;;;;;;27.33;42.45;99921.91;4485205;32;33569;-63
2021/08/09 06:18:39;;;;;;;4.53;1.25;;;;;;;27.34;42.42;99920.81;4485335;32;34495;-63
2021/08/09 06:21:07;;;;;;;2.55;1.40;;;;;;;27.32;42.49;99920.22;4485392;32;34869;-63
2021/08/09 06:23:36;;;;;;;2.73;1.23;;;;;;;27.33;42.50;99919.16;4485376;32;34920;-62
2021/08/09 06:26:05;;;;;;;5.07;1.62;;;;;;;27.33;42.52;99909.03;4485698;32;33605;-63
2021/08/09 06:28:33;;;;;;;3.28;1.20;;;;;;;27.33;42.57;99908.19;4485375;32;34370;-63
2021/08/09 06:31:01;;;;;;;4.90;1.20;;;;;;;27.33;42.56;99921.91;4485435;32;33575;-62
2021/08/09 06:33:29;;;;;;;7.10;1.30;;;;;;;27.37;42.53;99923.03;4485499;32;34580;-63
2021/08/09 06:35:56;;;;;;;6.78;1.45;;;;;;;27.38;42.48;99933.78;4484920;32;33517;-63
2021/08/09 06:38:24;;;;;;;3.35;1.62;;;;;;;27.39;42.46;99929.94;4484905;32;33644;-63
2021/08/09 06:40:52;;;;;;;4.72;1.30;;;;;;;27.39;42.47;99927.19;4485450;32;34096;-63
2021/08/09 06:43:20;;;;;;;3.55;1.60;;;;;;;27.39;42.46;99931.84;4485492;32;34241;-62
2021/08/09 06:45:48;;;;;;;2.97;1.35;;;;;;;27.40;42.40;99928.84;4485061;32;34665;-62
2021/08/09 06:48:16;;;;;;;3.12;1.50;;;;;;;27.39;42.41;99927.19;4485577;32;33402;-62
2021/08/09 06:50:44;;;;;;;3.95;1.37;;;;;;;27.40;42.40;99928.84;4485122;32;34222;-63
2021/08/09 06:53:12;;;;;;;2.80;1.30;;;;;;;27.41;42.40;99933.25;4485092;32;33744;-62
2021/08/09 06:55:41;;;;;;;;;;;;;;;27.41;42.40;99929.69;4485380;32;34162;-63
2021/08/09 06:58:09;;;;;;;4.00;1.30;;;;;;;27.52;42.18;99920.56;4484792;32;33599;-62
2021/08/09 07:00:38;;;;;;;2.37;1.10;;;;;;;27.44;42.34;99924.53;4485179;32;33893;-63
2021/08/09 07:03:06;;;;;;;3.62;1.42;;;;;;;27.42;42.39;99925.87;4485314;32;35029;-63
2021/08/09 07:05:44;;;;;;;4.12;1.83;;;;;;;27.41;42.43;99919.53;4485170;32;34589;-63
2021/08/09 07:08:13;;;;;;;3.12;1.30;;;;;;;27.44;42.41;99920.97;4471120;32;33633;-63
2021/08/09 07:10:41;;;;;;;3.08;1.27;;;;;;;27.41;42.43;99922.28;4485379;32;34877;-63
2021/08/09 07:13:10;;;;;;;3.95;1.40;;;;;;;27.41;42.45;99927.75;4485203;32;35303;-63
2021/08/09 07:15:38;;;;;;;2.15;1.30;;;;;;;27.43;42.44;99924.81;4484622;32;34043;-63
2021/08/09 07:18:05;;;;;;;3.08;1.30;;;;;;;27.42;42.46;99923.16;4483717;32;33586;-63
2021/08/09 07:20:33;;;;;;;4.80;1.40;;;;;;;27.43;42.46;99919.31;4484631;32;34033;-63
2021/08/09 07:23:02;;;;;;;1.62;1.15;;;;;;;27.44;42.46;99923.72;4484567;32;34331;-63
2021/08/09 07:25:29;;;;;;;2.97;1.40;;;;;;;27.43;42.47;99920.13;4485043;32;35232;-63
2021/08/09 07:27:57;;;;;;;3.92;1.20;;;;;;;27.45;42.47;99917.16;4484545;32;34363;-63
2021/08/09 07:30:26;;;;;;;3.10;1.20;;;;;;;27.45;42.47;99914.41;4485191;32;33988;-63
2021/08/09 07:32:54;;;;;;;3.67;1.35;;;;;;;27.46;42.47;99921.53;4484979;32;34075;-63
2021/08/09 07:35:24;;;;;;;2.22;1.30;;;;;;;27.46;42.48;99921.53;4484786;32;34651;-63
2021/08/09 07:37:52;;;;;;;2.72;1.30;;;;;;;27.46;42.47;99919.63;4484899;32;33320;-63
2021/08/09 07:40:20;;;;;;;2.87;1.30;;;;;;;27.48;42.47;99922.13;4485038;32;34066;-63
2021/08/09 07:42:52;;;;;;;4.43;1.42;;;;;;;27.48;42.48;99919.41;4484838;32;34811;-63
2021/08/09 07:45:20;;;;;;;3.10;1.30;;;;;;;27.49;42.49;99922.97;4484704;32;34700;-63
2021/08/09 07:47:55;;;;;;;3.53;1.20;;;;;;;27.49;42.50;99920.22;4484912;32;33726;-63
2021/08/09 07:50:23;;;;;;;4.75;1.30;;;;;;;27.49;42.49;99923.78;4477184;32;34250;-63
2021/08/09 07:52:50;;;;;;;1.95;1.10;;;;;;;27.50;42.50;99925.44;4484890;32;34090;-63
2021/08/09 07:55:18;;;;;;;1.75;1.02;;;;;;;27.50;42.50;99917.22;4484680;32;34678;-63
2021/08/09 07:57:46;;;;;;;2.42;1.17;;;;;;;27.51;42.52;99923.53;4484452;32;33486;-63
2021/08/09 08:00:15;;;;;;;2.42;1.00;;;;;;;27.51;42.52;99913.38;4483551;32;33902;-63
2021/08/09 08:02:48;;;;;;;3.10;1.33;;;;;;;27.52;42.51;99922.47;4484802;32;34016;-63
2021/08/09 08:05:16;;;;;;;3.80;1.27;;;;;;;27.52;42.51;99922.47;4484768;32;35053;-63
2021/08/09 08:07:43;;;;;;;2.00;1.40;;;;;;;27.53;42.52;99930.44;4484689;32;33558;-63
2021/08/09 08:10:11;;;;;;;2.05;1.10;;;;;;;27.53;42.52;99941.41;4484554;32;33872;-62
2021/08/09 08:12:39;;;;;;;2.17;1.20;;;;;;;27.54;42.53;99937.56;4484625;32;33934;-63
2021/08/09 08:15:08;;;;;;;2.47;1.27;;;;;;;27.53;42.53;99941.41;4484832;32;34684;-63
2021/08/09 08:17:36;;;;;;;2.53;1.33;;;;;;;27.54;42.54;99934.81;4484557;32;33232;-63
2021/08/09 08:20:04;;;;;;;3.67;1.23;;;;;;;27.54;42.54;99940.31;4484058;32;34109;-62
2021/08/09 08:22:34;;;;;;;3.10;1.55;;;;;;;27.53;42.56;99938.66;4484862;32;33997;-63
2021/08/09 08:25:02;;;;;;;3.55;1.40;;;;;;;27.54;42.55;99945.78;4484804;32;34357;-63
2021/08/09 08:27:29;;;;;;;2.10;1.20;;;;;;;27.55;42.55;99952.91;4484400;32;32855;-63
2021/08/09 08:29:57;;;;;;;1.62;1.15;;;;;;;27.54;42.58;99956.75;4484607;32;34695;-63
2021/08/09 08:32:44;;;;;;;2.78;0.98;;;;;;;27.56;42.59;99959.22;4484313;32;33984;-63
2021/08/09 08:35:12;;;;;;;3.40;1.27;;;;;;;27.56;42.57;99959.22;4482514;32;34069;-65
2021/08/09 08:37:40;;;;;;;2.15;1.10;;;;;;;27.55;42.58;99963.87;4484550;32;34718;-64
2021/08/09 08:40:08;;;;;;;2.87;1.20;;;;;;;27.56;42.57;99968.31;4471980;32;34819;-63
2021/08/09 08:42:37;;;;;;;2.65;1.30;;;;;;;27.55;42.58;99972.09;4484026;32;34249;-63
2021/08/09 08:45:05;;;;;;;1.75;1.12;;;;;;;27.56;42.60;99982.00;4479652;32;34316;-62
